• Join FlightAware (Why Join?)
  • Login
  • US Flag 
10:26AM EDT


 

Airport Tracker/Info


-or-


 

Live Flight TrackerFlight Track Log ✈ ANT208 ✈ 27-Jun-2013 ✈ CYEV - CYOC

Flight Track Log - Related Links

Times and Time Zones

All times are in EDT time to prevent confusion due to time zone crossing. See the ANT208 flight status page for this flight to view local times or setup timezone preferences in your user account.

Time Position Orientation Groundspeed Altitude Reporting Facility
EDT Latitude Longitude Course Direction KTS MPH feet Rate Location/Type
01:57PM 68.2408 -134.3287 253° West  Level FlightAware Approximate
01:58PM 68.2240 -134.4712 252° West  Level FlightAware Approximate
01:59PM 68.2104 -134.6158 258° West  Level FlightAware Approximate
02:00PM 68.1992 -134.7620 258° West  Level FlightAware Approximate
02:01PM 68.1879 -134.9081 258° West  Level FlightAware Approximate
02:02PM 68.1714 -135.0500 249° West  Level FlightAware Approximate
02:03PM 68.1548 -135.1921 254° West  Level FlightAware Approximate
02:04PM 68.1392 -135.3349 254° West  Level FlightAware Approximate
02:05PM 68.1234 -135.4776 254° West  Level FlightAware Approximate
02:06PM 68.1074 -135.6200 253° West  Level FlightAware Approximate
02:07PM 68.0914 -135.7623 253° West  Level FlightAware Approximate
02:08PM 68.0752 -135.9043 253° West  Level FlightAware Approximate
02:09PM 68.0589 -136.0461 253° West  Level FlightAware Approximate
02:10PM 68.0425 -136.1878 253° West  Level FlightAware Approximate
02:11PM 68.0260 -136.3293 253° West  Level FlightAware Approximate
02:12PM 68.0093 -136.4705 253° West  Level FlightAware Approximate
02:13PM 67.9926 -136.6115 252° West  Level FlightAware Approximate
02:14PM 67.9757 -136.7524 252° West  Level FlightAware Approximate
02:15PM 67.9586 -136.8930 252° West  Level FlightAware Approximate
02:16PM 67.9415 -137.0334 252° West  Level FlightAware Approximate
02:17PM 67.9243 -137.1736 252° West  Level FlightAware Approximate
02:18PM 67.9069 -137.3136 252° West  Level FlightAware Approximate
02:19PM 67.8894 -137.4534 252° West  Level FlightAware Approximate
02:20PM 67.8718 -137.5930 252° West  Level FlightAware Approximate
02:21PM 67.8533 -137.7317 250° West  Level FlightAware Approximate
02:22PM 67.8345 -137.8700 250° West  Level FlightAware Approximate
02:23PM 67.8157 -138.0081 253° West  Level FlightAware Approximate
02:24PM 67.7990 -138.1481 253° West  Level FlightAware Approximate
02:25PM 67.7823 -138.2878 252° West  Level FlightAware Approximate
02:26PM 67.7651 -138.4271 248° West  Level FlightAware Approximate
02:27PM 67.7441 -138.5626 248° West  Level FlightAware Approximate
02:28PM 67.7230 -138.6979 248° West  Level FlightAware Approximate
02:29PM 67.7018 -138.8330 248° West  Level FlightAware Approximate
02:30PM 67.6816 -138.9688 257° West  Level FlightAware Approximate
02:31PM 67.6687 -139.1107 257° West  Level FlightAware Approximate
02:32PM 67.6503 -139.2481 250° West  Level FlightAware Approximate
02:33PM 67.6306 -139.3843 248° West  Level FlightAware Approximate
02:34PM 67.6099 -139.5193 248° West  Level FlightAware Approximate
02:35PM 67.5884 -139.6533 246° West  Level FlightAware Approximate
02:36PM 67.5667 -139.7867 270° West  Level FlightAware Approximate
02:37PM 67.5667 -139.8333 North  Level FlightAware Approximate
02:38PM 67.5706 -139.8392 North  Level Estimated
02:39PM 67.5667 -139.8333 North  Level FlightAware Approximate
02:40PM 67.5706 -139.8392 North  Level Estimated
02:41PM 67.5667 -139.8333 North  Level FlightAware Approximate
02:42PM 67.5706 -139.8392 North  Level Estimated
02:43PM 67.5667 -139.8333 North  Level FlightAware Approximate
02:44PM 67.5706 -139.8392 North  Level Estimated
02:45PM 67.5667 -139.8333 North  Level FlightAware Approximate
02:46PM 67.5706 -139.8392 North  Level Estimated
02:47PM 67.5667 -139.8333 North  Level FlightAware Approximate
02:48PM 67.5706 -139.8392 North  Level Estimated
02:49PM 67.5667 -139.8333 North  Level FlightAware Approximate
02:50PM 67.5706 -139.8392 North  Level Estimated
02:51PM 67.5667 -139.8333 North  Level FlightAware Approximate
02:52PM 67.5706 -139.8392 North  Level Estimated